sensor_id;sensor_type;location;lat;lon;timestamp;pressure;altitude;pressure_sealevel;temperature;humidity
31346;BME280;21711;49.708;18.568;2023-02-18T00:01:42;97201.94;;;9.73;100.00
31346;BME280;21711;49.708;18.568;2023-02-18T00:04:09;97202.22;;;9.71;100.00
31346;BME280;21711;49.708;18.568;2023-02-18T00:06:37;97204.34;;;9.64;100.00
31346;BME280;21711;49.708;18.568;2023-02-18T00:09:05;97200.66;;;9.65;100.00
31346;BME280;21711;49.708;18.568;2023-02-18T00:11:35;97210.94;;;9.67;100.00
31346;BME280;21711;49.708;18.568;2023-02-18T00:14:05;97213.84;;;9.70;100.00
31346;BME280;21711;49.708;18.568;2023-02-18T00:16:33;97216.47;;;9.76;100.00
31346;BME280;21711;49.708;18.568;2023-02-18T00:19:04;97211.47;;;9.69;100.00
31346;BME280;21711;49.708;18.568;2023-02-18T00:21:33;97204.31;;;9.74;100.00
31346;BME280;21711;49.708;18.568;2023-02-18T00:24:03;97213.81;;;9.76;100.00
31346;BME280;21711;49.708;18.568;2023-02-18T00:26:31;97217.56;;;9.64;100.00
31346;BME280;21711;49.708;18.568;2023-02-18T00:28:58;97215.16;;;9.63;100.00
31346;BME280;21711;49.708;18.568;2023-02-18T00:31:30;97211.47;;;9.69;100.00
31346;BME280;21711;49.708;18.568;2023-02-18T00:34:01;97210.38;;;9.80;100.00
31346;BME280;21711;49.708;18.568;2023-02-18T00:36:29;97217.28;;;9.71;100.00
31346;BME280;21711;49.708;18.568;2023-02-18T00:39:00;97223.34;;;9.66;100.00
31346;BME280;21711;49.708;18.568;2023-02-18T00:41:30;97209.59;;;9.74;100.00
31346;BME280;21711;49.708;18.568;2023-02-18T00:43:58;97219.91;;;9.76;100.00
31346;BME280;21711;49.708;18.568;2023-02-18T00:46:26;97211.72;;;9.72;100.00
31346;BME280;21711;49.708;18.568;2023-02-18T00:48:54;97208.00;;;9.79;100.00
31346;BME280;21711;49.708;18.568;2023-02-18T00:51:23;97217.53;;;9.74;100.00
31346;BME280;21711;49.708;18.568;2023-02-18T00:53:51;97207.50;;;9.61;100.00
31346;BME280;21711;49.708;18.568;2023-02-18T00:56:19;97202.53;;;9.49;100.00
31346;BME280;21711;49.708;18.568;2023-02-18T00:58:48;97198.56;;;9.46;100.00
31346;BME280;21711;49.708;18.568;2023-02-18T01:01:15;97200.16;;;9.47;100.00
31346;BME280;21711;49.708;18.568;2023-02-18T01:03:43;97194.06;;;9.52;100.00
31346;BME280;21711;49.708;18.568;2023-02-18T01:06:11;97194.88;;;9.42;100.00
31346;BME280;21711;49.708;18.568;2023-02-18T01:08:40;97210.72;;;9.42;100.00
31346;BME280;21711;49.708;18.568;2023-02-18T01:11:10;97212.28;;;9.38;100.00
31346;BME280;21711;49.708;18.568;2023-02-18T01:13:39;97218.13;;;9.40;100.00
31346;BME280;21711;49.708;18.568;2023-02-18T01:16:08;97221.81;;;9.44;100.00
31346;BME280;21711;49.708;18.568;2023-02-18T01:18:37;97224.97;;;9.41;100.00
31346;BME280;21711;49.708;18.568;2023-02-18T01:21:06;97214.94;;;9.54;100.00
31346;BME280;21711;49.708;18.568;2023-02-18T01:23:40;97229.47;;;9.51;100.00
31346;BME280;21711;49.708;18.568;2023-02-18T01:26:09;97234.75;;;9.46;100.00
31346;BME280;21711;49.708;18.568;2023-02-18T01:28:39;97244.50;;;9.40;100.00
31346;BME280;21711;49.708;18.568;2023-02-18T01:31:11;97236.06;;;9.38;100.00
31346;BME280;21711;49.708;18.568;2023-02-18T01:33:39;97238.69;;;9.33;100.00
31346;BME280;21711;49.708;18.568;2023-02-18T01:36:08;97241.34;;;9.28;100.00
31346;BME280;21711;49.708;18.568;2023-02-18T01:38:37;97236.59;;;9.35;100.00
31346;BME280;21711;49.708;18.568;2023-02-18T01:41:05;97235.81;;;9.29;100.00
31346;BME280;21711;49.708;18.568;2023-02-18T01:43:33;97236.59;;;9.30;100.00
31346;BME280;21711;49.708;18.568;2023-02-18T01:48:55;97247.16;;;9.45;100.00
31346;BME280;21711;49.708;18.568;2023-02-18T01:51:39;97245.84;;;9.38;100.00
31346;BME280;21711;49.708;18.568;2023-02-18T01:54:23;97243.72;;;9.40;100.00
31346;BME280;21711;49.708;18.568;2023-02-18T01:56:59;97249.53;;;9.42;100.00
31346;BME280;21711;49.708;18.568;2023-02-18T01:59:42;97252.69;;;9.49;100.00
31346;BME280;21711;49.708;18.568;2023-02-18T02:02:16;97242.91;;;9.55;100.00
31346;BME280;21711;49.708;18.568;2023-02-18T02:04:45;97251.09;;;9.53;100.00
31346;BME280;21711;49.708;18.568;2023-02-18T02:07:15;97244.25;;;9.47;100.00
31346;BME280;21711;49.708;18.568;2023-02-18T02:09:43;97245.56;;;9.44;100.00
31346;BME280;21711;49.708;18.568;2023-02-18T02:12:59;97248.72;;;9.52;100.00
31346;BME280;21711;49.708;18.568;2023-02-18T02:16:21;97249.00;;;9.29;100.00
31346;BME280;21711;49.708;18.568;2023-02-18T02:19:45;97251.88;;;9.38;100.00
31346;BME280;21711;49.708;18.568;2023-02-18T02:36:59;97280.91;;;9.07;100.00
31346;BME280;21711;49.708;18.568;2023-02-18T02:51:24;97274.78;;;8.80;100.00
31346;BME280;21711;49.708;18.568;2023-02-18T02:54:17;97286.09;;;8.76;100.00
31346;BME280;21711;49.708;18.568;2023-02-18T02:56:45;97278.44;;;8.74;100.00
31346;BME280;21711;49.708;18.568;2023-02-18T02:59:22;97286.66;;;8.73;100.00
31346;BME280;21711;49.708;18.568;2023-02-18T03:05:14;97282.69;;;8.70;100.00
31346;BME280;21711;49.708;18.568;2023-02-18T03:11:13;97273.72;;;8.71;100.00
31346;BME280;21711;49.708;18.568;2023-02-18T03:14:01;97277.69;;;8.79;100.00
31346;BME280;21711;49.708;18.568;2023-02-18T03:19:48;97276.63;;;8.75;100.00
31346;BME280;21711;49.708;18.568;2023-02-18T03:22:28;97290.38;;;8.92;100.00
31346;BME280;21711;49.708;18.568;2023-02-18T03:24:59;97295.41;;;8.89;100.00
31346;BME280;21711;49.708;18.568;2023-02-18T03:27:50;97289.31;;;8.83;100.00
31346;BME280;21711;49.708;18.568;2023-02-18T03:30:40;97286.94;;;8.81;100.00
31346;BME280;21711;49.708;18.568;2023-02-18T03:33:13;97290.91;;;8.89;100.00
31346;BME280;21711;49.708;18.568;2023-02-18T03:35:43;97310.94;;;8.95;100.00
31346;BME280;21711;49.708;18.568;2023-02-18T03:38:43;97310.94;;;8.95;100.00
31346;BME280;21711;49.708;18.568;2023-02-18T03:41:12;97319.13;;;8.89;100.00
31346;BME280;21711;49.708;18.568;2023-02-18T03:43:41;97331.28;;;8.95;100.00
31346;BME280;21711;49.708;18.568;2023-02-18T03:46:14;97328.03;;;8.77;100.00
31346;BME280;21711;49.708;18.568;2023-02-18T03:48:43;97320.38;;;8.76;100.00
31346;BME280;21711;49.708;18.568;2023-02-18T03:51:10;97327.75;;;8.68;100.00
31346;BME280;21711;49.708;18.568;2023-02-18T03:53:38;97320.34;;;8.60;100.00
31346;BME280;21711;49.708;18.568;2023-02-18T03:56:05;97324.03;;;8.59;100.00
31346;BME280;21711;49.708;18.568;2023-02-18T03:58:33;97326.97;;;8.73;100.00
31346;BME280;21711;49.708;18.568;2023-02-18T04:01:01;97331.44;;;8.67;100.00
31346;BME280;21711;49.708;18.568;2023-02-18T04:03:28;97339.09;;;8.74;100.00
31346;BME280;21711;49.708;18.568;2023-02-18T04:05:55;97328.06;;;8.82;100.00
31346;BME280;21711;49.708;18.568;2023-02-18T04:08:23;97334.88;;;8.68;100.00
31346;BME280;21711;49.708;18.568;2023-02-18T04:10:51;97331.72;;;8.66;100.00
31346;BME280;21711;49.708;18.568;2023-02-18T04:13:18;97341.78;;;8.79;100.00
31346;BME280;21711;49.708;18.568;2023-02-18T04:15:49;97340.97;;;8.74;100.00
31346;BME280;21711;49.708;18.568;2023-02-18T04:18:17;97333.59;;;8.86;100.00
31346;BME280;21711;49.708;18.568;2023-02-18T04:20:44;97347.59;;;8.92;100.00
31346;BME280;21711;49.708;18.568;2023-02-18T04:23:16;97345.00;;;9.02;100.00
31346;BME280;21711;49.708;18.568;2023-02-18T04:25:43;97352.63;;;8.99;100.00
31346;BME280;21711;49.708;18.568;2023-02-18T04:28:13;97349.00;;;9.10;100.00
31346;BME280;21711;49.708;18.568;2023-02-18T04:30:43;97338.66;;;8.98;100.00
31346;BME280;21711;49.708;18.568;2023-02-18T04:33:11;97333.66;;;9.02;100.00
31346;BME280;21711;49.708;18.568;2023-02-18T04:35:38;97344.72;;;8.99;100.00
31346;BME280;21711;49.708;18.568;2023-02-18T04:38:09;97343.66;;;8.94;100.00
31346;BME280;21711;49.708;18.568;2023-02-18T04:40:37;97341.00;;;8.94;100.00
31346;BME280;21711;49.708;18.568;2023-02-18T04:43:04;97341.56;;;8.97;100.00
31346;BME280;21711;49.708;18.568;2023-02-18T04:45:31;97346.53;;;8.93;100.00
31346;BME280;21711;49.708;18.568;2023-02-18T04:47:59;97351.84;;;8.98;100.00
31346;BME280;21711;49.708;18.568;2023-02-18T04:50:26;97346.81;;;8.91;100.00
31346;BME280;21711;49.708;18.568;2023-02-18T04:52:53;97354.75;;;8.91;100.00
31346;BME280;21711;49.708;18.568;2023-02-18T04:55:21;97342.34;;;8.97;100.00
31346;BME280;21711;49.708;18.568;2023-02-18T04:57:48;97352.03;;;8.81;100.00
31346;BME280;21711;49.708;18.568;2023-02-18T05:00:18;97338.88;;;8.86;100.00
31346;BME280;21711;49.708;18.568;2023-02-18T05:02:46;97336.50;;;8.79;100.00
31346;BME280;21711;49.708;18.568;2023-02-18T05:05:14;97337.84;;;8.87;100.00
31346;BME280;21711;49.708;18.568;2023-02-18T05:07:42;97346.25;;;8.84;100.00
31346;BME280;21711;49.708;18.568;2023-02-18T05:10:13;97342.06;;;8.93;100.00
31346;BME280;21711;49.708;18.568;2023-02-18T05:12:41;97334.66;;;8.90;100.00
31346;BME280;21711;49.708;18.568;2023-02-18T05:15:09;97347.09;;;8.95;100.00
31346;BME280;21711;49.708;18.568;2023-02-18T05:17:36;97343.38;;;8.91;100.00
31346;BME280;21711;49.708;18.568;2023-02-18T05:20:05;97337.06;;;8.92;100.00
31346;BME280;21711;49.708;18.568;2023-02-18T05:22:36;97338.38;;;8.94;100.00
31346;BME280;21711;49.708;18.568;2023-02-18T05:25:04;97339.44;;;8.93;100.00
31346;BME280;21711;49.708;18.568;2023-02-18T05:27:32;97343.38;;;8.91;100.00
31346;BME280;21711;49.708;18.568;2023-02-18T05:29:59;97320.44;;;8.91;100.00
31346;BME280;21711;49.708;18.568;2023-02-18T05:32:27;97319.66;;;9.01;100.00
31346;BME280;21711;49.708;18.568;2023-02-18T05:34:54;97336.28;;;8.97;100.00
31346;BME280;21711;49.708;18.568;2023-02-18T05:37:21;97337.06;;;8.97;100.00
31346;BME280;21711;49.708;18.568;2023-02-18T05:39:49;97333.09;;;8.89;100.00
31346;BME280;21711;49.708;18.568;2023-02-18T05:42:16;97338.09;;;8.91;100.00
31346;BME280;21711;49.708;18.568;2023-02-18T05:44:43;97338.94;;;8.97;100.00
31346;BME280;21711;49.708;18.568;2023-02-18T05:47:12;97332.28;;;8.84;100.00
31346;BME280;21711;49.708;18.568;2023-02-18T05:49:40;97352.06;;;8.86;100.00
31346;BME280;21711;49.708;18.568;2023-02-18T05:52:09;97356.28;;;8.82;100.00
31346;BME280;21711;49.708;18.568;2023-02-18T05:54:37;97351.78;;;8.77;100.00
31346;BME280;21711;49.708;18.568;2023-02-18T05:57:05;97354.16;;;8.79;100.00
31346;BME280;21711;49.708;18.568;2023-02-18T05:59:33;97354.41;;;8.77;100.00
31346;BME280;21711;49.708;18.568;2023-02-18T06:02:00;97354.69;;;8.81;100.00
31346;BME280;21711;49.708;18.568;2023-02-18T06:04:28;97352.03;;;8.81;100.00
31346;BME280;21711;49.708;18.568;2023-02-18T06:06:55;97359.94;;;8.76;100.00
31346;BME280;21711;49.708;18.568;2023-02-18T06:09:23;97368.66;;;8.81;100.00
31346;BME280;21711;49.708;18.568;2023-02-18T06:11:50;97366.78;;;8.72;100.00
31346;BME280;21711;49.708;18.568;2023-02-18T06:14:19;97362.28;;;8.62;100.00
31346;BME280;21711;49.708;18.568;2023-02-18T06:16:46;97365.44;;;8.64;100.00
31346;BME280;21711;49.708;18.568;2023-02-18T06:19:14;97365.75;;;8.78;100.00
31346;BME280;21711;49.708;18.568;2023-02-18T06:21:41;97360.47;;;8.73;100.00
31346;BME280;21711;49.708;18.568;2023-02-18T06:24:08;97365.97;;;8.66;100.00
31346;BME280;21711;49.708;18.568;2023-02-18T06:26:36;97376.81;;;8.75;100.00
31346;BME280;21711;49.708;18.568;2023-02-18T06:29:03;97380.75;;;8.67;100.00
31346;BME280;21711;49.708;18.568;2023-02-18T06:31:31;97370.72;;;8.69;100.00
31346;BME280;21711;49.708;18.568;2023-02-18T06:33:58;97378.63;;;8.69;100.00
31346;BME280;21711;49.708;18.568;2023-02-18T06:36:25;97389.16;;;8.69;100.00
31346;BME280;21711;49.708;18.568;2023-02-18T06:38:53;97379.69;;;8.73;100.00
31346;BME280;21711;49.708;18.568;2023-02-18T06:41:23;97385.22;;;8.66;100.00
31346;BME280;21711;49.708;18.568;2023-02-18T06:43:51;97382.56;;;8.61;100.00
31346;BME280;21711;49.708;18.568;2023-02-18T06:46:18;97384.94;;;8.63;100.00
31346;BME280;21711;49.708;18.568;2023-02-18T06:48:46;97386.53;;;8.69;100.00
31346;BME280;21711;49.708;18.568;2023-02-18T06:51:14;97406.28;;;8.61;100.00
31346;BME280;21711;49.708;18.568;2023-02-18T06:53:42;97397.63;;;8.71;100.00
31346;BME280;21711;49.708;18.568;2023-02-18T06:56:10;97396.78;;;8.60;100.00
31346;BME280;21711;49.708;18.568;2023-02-18T06:58:38;97406.28;;;8.66;100.00
31346;BME280;21711;49.708;18.568;2023-02-18T07:01:06;97404.75;;;8.76;100.00
31346;BME280;21711;49.708;18.568;2023-02-18T07:03:33;97407.09;;;8.67;100.00
31346;BME280;21711;49.708;18.568;2023-02-18T07:06:01;97398.91;;;8.63;100.00
31346;BME280;21711;49.708;18.568;2023-02-18T07:08:28;97409.25;;;8.75;100.00
31346;BME280;21711;49.708;18.568;2023-02-18T07:10:57;97407.41;;;8.81;100.00
31346;BME280;21711;49.708;18.568;2023-02-18T07:13:24;97406.66;;;8.86;100.00
31346;BME280;21711;49.708;18.568;2023-02-18T07:15:52;97400.00;;;8.67;100.00
31346;BME280;21711;49.708;18.568;2023-02-18T07:18:19;97410.59;;;8.83;100.00
31346;BME280;21711;49.708;18.568;2023-02-18T07:20:47;97413.97;;;8.73;100.00
31346;BME280;21711;49.708;18.568;2023-02-18T07:23:14;97414.50;;;8.70;100.00
31346;BME280;21711;49.708;18.568;2023-02-18T07:25:41;97414.22;;;8.66;100.00
31346;BME280;21711;49.708;18.568;2023-02-18T07:28:09;97413.50;;;8.81;100.00
31346;BME280;21711;49.708;18.568;2023-02-18T07:30:36;97413.53;;;8.87;100.00
31346;BME280;21711;49.708;18.568;2023-02-18T07:33:03;97420.56;;;8.71;100.00
31346;BME280;21711;49.708;18.568;2023-02-18T07:35:31;97420.09;;;8.79;100.00
31346;BME280;21711;49.708;18.568;2023-02-18T07:37:58;97420.03;;;8.68;100.00
31346;BME280;21711;49.708;18.568;2023-02-18T07:40:26;97412.16;;;8.79;100.00
31346;BME280;21711;49.708;18.568;2023-02-18T07:42:53;97422.78;;;9.00;100.00
31346;BME280;21711;49.708;18.568;2023-02-18T07:45:20;97419.09;;;8.95;100.00
31346;BME280;21711;49.708;18.568;2023-02-18T07:47:48;97415.13;;;8.93;100.00
31346;BME280;21711;49.708;18.568;2023-02-18T07:50:15;97420.47;;;9.03;100.00
31346;BME280;21711;49.708;18.568;2023-02-18T07:52:42;97426.75;;;8.97;100.00
31346;BME280;21711;49.708;18.568;2023-02-18T07:55:09;97399.00;;;8.84;100.00
31346;BME280;21711;49.708;18.568;2023-02-18T07:57:37;97407.16;;;8.82;100.00
31346;BME280;21711;49.708;18.568;2023-02-18T08:00:23;97401.19;;;9.03;100.00
31346;BME280;21711;49.708;18.568;2023-02-18T08:02:51;97404.63;;;9.03;100.00
31346;BME280;21711;49.708;18.568;2023-02-18T08:05:18;97389.56;;;9.04;100.00
31346;BME280;21711;49.708;18.568;2023-02-18T08:07:46;97404.41;;;9.15;100.00
31346;BME280;21711;49.708;18.568;2023-02-18T08:10:13;97395.69;;;9.15;100.00
31346;BME280;21711;49.708;18.568;2023-02-18T08:12:40;97412.31;;;9.15;100.00
31346;BME280;21711;49.708;18.568;2023-02-18T08:15:08;97407.59;;;9.28;100.00
31346;BME280;21711;49.708;18.568;2023-02-18T08:17:36;97403.88;;;9.29;100.00
31346;BME280;21711;49.708;18.568;2023-02-18T08:20:04;97394.84;;;9.04;99.75
31346;BME280;21711;49.708;18.568;2023-02-18T08:22:31;97394.34;;;9.07;98.93
31346;BME280;21711;49.708;18.568;2023-02-18T08:24:59;97404.09;;;9.12;99.58
31346;BME280;21711;49.708;18.568;2023-02-18T08:27:26;97409.13;;;9.08;99.85
31346;BME280;21711;49.708;18.568;2023-02-18T08:29:54;97414.66;;;9.06;99.70
31346;BME280;21711;49.708;18.568;2023-02-18T08:32:22;97420.91;;;8.85;99.23
31346;BME280;21711;49.708;18.568;2023-02-18T08:34:52;97409.31;;;8.86;99.05
31346;BME280;21711;49.708;18.568;2023-02-18T08:37:19;97405.09;;;8.85;99.05
31346;BME280;21711;49.708;18.568;2023-02-18T08:39:47;97413.03;;;9.00;99.34
31346;BME280;21711;49.708;18.568;2023-02-18T08:42:14;97405.59;;;8.87;98.76
31346;BME280;21711;49.708;18.568;2023-02-18T08:44:41;97401.91;;;8.82;98.11
31346;BME280;21711;49.708;18.568;2023-02-18T08:47:09;97399.44;;;8.65;97.95
31346;BME280;21711;49.708;18.568;2023-02-18T08:49:56;97405.84;;;8.85;97.98
31346;BME280;21711;49.708;18.568;2023-02-18T08:52:24;97397.69;;;8.87;98.11
31346;BME280;21711;49.708;18.568;2023-02-18T08:54:51;97400.59;;;8.85;97.21
31346;BME280;21711;49.708;18.568;2023-02-18T08:57:18;97381.84;;;8.81;96.92
31346;BME280;21711;49.708;18.568;2023-02-18T08:59:46;97380.50;;;8.74;95.95
31346;BME280;21711;49.708;18.568;2023-02-18T09:02:14;97390.78;;;8.70;97.68
31346;BME280;21711;49.708;18.568;2023-02-18T09:04:41;97392.13;;;8.78;98.10
31346;BME280;21711;49.708;18.568;2023-02-18T09:07:08;97391.28;;;8.67;96.57
31346;BME280;21711;49.708;18.568;2023-02-18T09:09:35;97388.13;;;8.65;96.49
31346;BME280;21711;49.708;18.568;2023-02-18T09:12:03;97386.03;;;8.72;98.83
31346;BME280;21711;49.708;18.568;2023-02-18T09:14:30;97386.81;;;8.67;97.80
31346;BME280;21711;49.708;18.568;2023-02-18T09:16:58;97386.28;;;8.71;98.93
31346;BME280;21711;49.708;18.568;2023-02-18T09:19:26;97391.00;;;8.63;100.00
31346;BME280;21711;49.708;18.568;2023-02-18T09:21:53;97398.13;;;8.63;99.49
31346;BME280;21711;49.708;18.568;2023-02-18T09:24:20;97396.84;;;8.76;99.46
31346;BME280;21711;49.708;18.568;2023-02-18T09:26:47;97399.66;;;8.59;100.00
31346;BME280;21711;49.708;18.568;2023-02-18T09:29:16;97398.41;;;8.72;100.00
31346;BME280;21711;49.708;18.568;2023-02-18T09:31:44;97403.38;;;8.58;99.62
31346;BME280;21711;49.708;18.568;2023-02-18T09:34:11;97411.28;;;8.63;100.00
31346;BME280;21711;49.708;18.568;2023-02-18T09:36:39;97411.53;;;8.56;100.00
31346;BME280;21711;49.708;18.568;2023-02-18T09:39:06;97406.03;;;8.63;100.00
31346;BME280;21711;49.708;18.568;2023-02-18T09:41:44;97411.78;;;8.54;100.00
31346;BME280;21711;49.708;18.568;2023-02-18T09:44:23;97413.69;;;8.64;100.00
31346;BME280;21711;49.708;18.568;2023-02-18T09:49:32;97406.13;;;8.35;100.00
31346;BME280;21711;49.708;18.568;2023-02-18T09:52:17;97396.97;;;8.48;100.00
31346;BME280;21711;49.708;18.568;2023-02-18T09:54:45;97392.69;;;8.37;100.00
31346;BME280;21711;49.708;18.568;2023-02-18T09:57:41;97393.47;;;8.37;100.00
31346;BME280;21711;49.708;18.568;2023-02-18T10:03:12;97379.91;;;8.56;100.00
31346;BME280;21711;49.708;18.568;2023-02-18T10:08:43;97365.00;;;8.34;100.00
31346;BME280;21711;49.708;18.568;2023-02-18T10:11:38;97355.59;;;8.49;100.00
31346;BME280;21711;49.708;18.568;2023-02-18T10:14:14;97356.41;;;8.54;100.00
31346;BME280;21711;49.708;18.568;2023-02-18T10:16:43;97343.94;;;8.39;100.00
31346;BME280;21711;49.708;18.568;2023-02-18T10:19:21;97339.38;;;8.73;100.00
31346;BME280;21711;49.708;18.568;2023-02-18T10:21:51;97333.06;;;8.79;100.00
31346;BME280;21711;49.708;18.568;2023-02-18T10:24:32;97336.28;;;8.97;100.00
31346;BME280;21711;49.708;18.568;2023-02-18T10:27:04;97338.13;;;8.96;100.00
31346;BME280;21711;49.708;18.568;2023-02-18T10:29:32;97321.22;;;8.87;100.00
31346;BME280;21711;49.708;18.568;2023-02-18T10:32:21;97325.69;;;8.86;100.00
31346;BME280;21711;49.708;18.568;2023-02-18T10:35:04;97322.03;;;8.92;100.00
31346;BME280;21711;49.708;18.568;2023-02-18T10:41:00;97314.09;;;8.82;100.00
31346;BME280;21711;49.708;18.568;2023-02-18T10:43:57;97315.38;;;8.74;100.00
31346;BME280;21711;49.708;18.568;2023-02-18T10:50:00;97298.38;;;8.44;100.00
31346;BME280;21711;49.708;18.568;2023-02-18T10:52:20;97296.00;;;8.48;100.00
31346;BME280;21711;49.708;18.568;2023-02-18T10:54:59;97292.31;;;8.44;100.00
31346;BME280;21711;49.708;18.568;2023-02-18T10:57:27;97298.75;;;8.68;100.00
31346;BME280;21711;49.708;18.568;2023-02-18T11:00:25;97292.44;;;8.80;100.00
31346;BME280;21711;49.708;18.568;2023-02-18T11:03:15;97297.06;;;8.52;100.00
31346;BME280;21711;49.708;18.568;2023-02-18T11:05:46;97288.06;;;8.42;100.00
31346;BME280;21711;49.708;18.568;2023-02-18T11:08:21;97289.53;;;8.66;100.00
31346;BME280;21711;49.708;18.568;2023-02-18T11:10:50;97273.16;;;8.59;100.00
31346;BME280;21711;49.708;18.568;2023-02-18T11:13:26;97273.13;;;8.53;100.00
31346;BME280;21711;49.708;18.568;2023-02-18T11:16:00;97275.66;;;8.33;100.00
31346;BME280;21711;49.708;18.568;2023-02-18T11:18:34;97274.91;;;8.42;100.00
31346;BME280;21711;49.708;18.568;2023-02-18T11:21:21;97266.09;;;8.16;100.00
31346;BME280;21711;49.708;18.568;2023-02-18T11:23:53;97248.97;;;8.13;100.00
31346;BME280;21711;49.708;18.568;2023-02-18T11:26:32;97264.72;;;8.03;100.00
31346;BME280;21711;49.708;18.568;2023-02-18T11:29:27;97256.81;;;8.03;100.00
31346;BME280;21711;49.708;18.568;2023-02-18T11:31:57;97260.50;;;8.02;100.00
31346;BME280;21711;49.708;18.568;2023-02-18T11:34:30;97249.97;;;8.02;100.00
31346;BME280;21711;49.708;18.568;2023-02-18T11:37:16;97248.44;;;8.11;100.00
31346;BME280;21711;49.708;18.568;2023-02-18T11:39:48;97237.69;;;8.18;100.00
31346;BME280;21711;49.708;18.568;2023-02-18T11:42:20;97238.97;;;8.15;100.00
31346;BME280;21711;49.708;18.568;2023-02-18T11:44:59;97241.03;;;8.03;100.00
31346;BME280;21711;49.708;18.568;2023-02-18T11:47:36;97242.59;;;7.99;100.00
31346;BME280;21711;49.708;18.568;2023-02-18T11:50:16;97226.75;;;7.94;100.00
31346;BME280;21711;49.708;18.568;2023-02-18T11:52:49;97222.78;;;7.91;100.00
31346;BME280;21711;49.708;18.568;2023-02-18T11:55:24;97214.13;;;7.96;100.00
31346;BME280;21711;49.708;18.568;2023-02-18T11:58:03;97203.91;;;8.05;100.00
31346;BME280;21711;49.708;18.568;2023-02-18T12:00:44;97199.66;;;7.98;100.00
31346;BME280;21711;49.708;18.568;2023-02-18T12:03:38;97190.69;;;7.89;100.00
31346;BME280;21711;49.708;18.568;2023-02-18T12:06:23;97175.31;;;7.70;100.00
31346;BME280;21711;49.708;18.568;2023-02-18T12:09:28;97161.97;;;7.93;100.00
31346;BME280;21711;49.708;18.568;2023-02-18T12:12:06;97148.56;;;7.99;100.00
31346;BME280;21711;49.708;18.568;2023-02-18T12:14:37;97142.56;;;8.14;100.00
31346;BME280;21711;49.708;18.568;2023-02-18T12:25:36;97113.78;;;7.97;100.00
31346;BME280;21711;49.708;18.568;2023-02-18T12:31:30;97099.66;;;8.35;100.00
31346;BME280;21711;49.708;18.568;2023-02-18T12:34:35;97101.22;;;8.41;100.00
31346;BME280;21711;49.708;18.568;2023-02-18T12:52:11;97060.97;;;8.61;100.00
31346;BME280;21711;49.708;18.568;2023-02-18T13:04:33;97021.88;;;9.10;100.00
31346;BME280;21711;49.708;18.568;2023-02-18T13:13:21;97004.97;;;9.16;100.00
31346;BME280;21711;49.708;18.568;2023-02-18T13:16:13;97011.31;;;9.15;100.00
31346;BME280;21711;49.708;18.568;2023-02-18T13:19:32;96988.03;;;9.28;100.00
31346;BME280;21711;49.708;18.568;2023-02-18T13:22:05;96983.78;;;9.32;100.00
31346;BME280;21711;49.708;18.568;2023-02-18T13:24:41;96973.25;;;9.27;100.00
31346;BME280;21711;49.708;18.568;2023-02-18T13:31:33;96965.84;;;9.34;100.00
31346;BME280;21711;49.708;18.568;2023-02-18T13:33:43;96952.66;;;9.34;100.00
31346;BME280;21711;49.708;18.568;2023-02-18T13:37:05;96946.53;;;9.39;100.00
31346;BME280;21711;49.708;18.568;2023-02-18T13:39:35;96953.41;;;9.34;100.00
31346;BME280;21711;49.708;18.568;2023-02-18T13:55:57;96932.88;;;9.31;100.00
31346;BME280;21711;49.708;18.568;2023-02-18T13:58:29;96918.25;;;9.50;100.00
31346;BME280;21711;49.708;18.568;2023-02-18T14:06:14;96908.00;;;9.43;100.00
31346;BME280;21711;49.708;18.568;2023-02-18T14:08:43;96906.16;;;9.43;100.00
31346;BME280;21711;49.708;18.568;2023-02-18T14:14:13;96895.38;;;9.34;100.00
31346;BME280;21711;49.708;18.568;2023-02-18T14:22:49;96865.19;;;9.51;100.00
31346;BME280;21711;49.708;18.568;2023-02-18T14:25:38;96854.34;;;9.53;100.00
31346;BME280;21711;49.708;18.568;2023-02-18T14:40:02;96842.66;;;9.64;100.00
31346;BME280;21711;49.708;18.568;2023-02-18T14:49:00;96826.75;;;9.69;100.00
31346;BME280;21711;49.708;18.568;2023-02-18T14:51:33;96825.69;;;9.70;100.00
31346;BME280;21711;49.708;18.568;2023-02-18T14:54:06;96822.03;;;9.66;100.00
31346;BME280;21711;49.708;18.568;2023-02-18T14:56:55;96812.84;;;9.58;100.00
31346;BME280;21711;49.708;18.568;2023-02-18T14:59:30;96822.28;;;9.70;100.00
31346;BME280;21711;49.708;18.568;2023-02-18T15:02:00;96816.75;;;9.66;100.00
31346;BME280;21711;49.708;18.568;2023-02-18T15:04:28;96815.13;;;9.70;100.00
31346;BME280;21711;49.708;18.568;2023-02-18T15:07:02;96821.97;;;9.71;100.00
31346;BME280;21711;49.708;18.568;2023-02-18T15:09:30;96809.63;;;9.67;100.00
31346;BME280;21711;49.708;18.568;2023-02-18T15:12:04;96807.44;;;9.74;100.00
31346;BME280;21711;49.708;18.568;2023-02-18T15:14:41;96805.16;;;9.67;100.00
31346;BME280;21711;49.708;18.568;2023-02-18T15:17:22;96808.56;;;9.68;100.00
31346;BME280;21711;49.708;18.568;2023-02-18T15:19:55;96803.22;;;9.73;100.00
31346;BME280;21711;49.708;18.568;2023-02-18T15:22:30;96800.31;;;9.74;100.00
31346;BME280;21711;49.708;18.568;2023-02-18T15:25:00;96800.84;;;9.71;100.00
31346;BME280;21711;49.708;18.568;2023-02-18T15:27:30;96803.13;;;9.83;100.00
31346;BME280;21711;49.708;18.568;2023-02-18T15:30:18;96795.81;;;9.75;100.00
31346;BME280;21711;49.708;18.568;2023-02-18T15:32:59;96794.75;;;9.76;100.00
31346;BME280;21711;49.708;18.568;2023-02-18T15:35:30;96794.94;;;9.85;100.00
31346;BME280;21711;49.708;18.568;2023-02-18T15:38:00;96801.06;;;9.80;100.00
31346;BME280;21711;49.708;18.568;2023-02-18T15:40:34;96787.00;;;9.85;100.00
31346;BME280;21711;49.708;18.568;2023-02-18T15:43:04;96791.19;;;9.91;100.00
31346;BME280;21711;49.708;18.568;2023-02-18T15:45:39;96791.97;;;9.92;100.00